Greeley, CO

9:20 PM MDT on July 06, 2015 (GMT -0600)
23rd Ave and W C St | | Change Station
CLOSE
Current Station
Personal Weather Station
Location: Greeley, CO
Elevation: 4694 ft
Nearby Weather Stations

Elev 4694 ft 40.44 °N, 104.72 °W | Updated 12 minutes ago

Partly Cloudy
Partly Cloudy
65.6 °F
Feels Like 65.6 °F
N
0.0
Wind Variable Wind from East

Today
High -- | Low -- °F
--% Chance of Precip.
Yesterday
High -- | Low -- °F
Precip. -- in
5:35 AM 8:31 PM
Waning Gibbous, 69% visible
Pressure 30.26 in
Visibility 4.0 miles
Clouds Overcast 3000 ft
Dew Point 56 °F
Humidity 71%
Rainfall 0.02 in
Snow Depth Not available.
UV 0 out of 12
Pollen .60 out of 12
Air Quality Not available.
Flu Activity Not available.
METAR KGXY 070315Z AUTO 22004KT 4SM OVC030 18/14 A3026 RMK AO1

More Conditions Fewer Conditions

Pressure 30.26 in
Visibility 4.0 miles
Clouds Overcast 3000 ft
Dew Point 56 °F
Humidity 71%
Rainfall 0.02 in
Snow Depth Not available.
UV 0 out of 12
Pollen .60 out of 12
Air Quality Not available.
Flu Activity Not available.
METAR KGXY 070315Z AUTO 22004KT 4SM OVC030 18/14 A3026 RMK AO1

More Conditions Fewer Conditions

10-Day Weather Forecast

×

Almanac

Astronomy

Jul. 06, 2015 Rise Set
Actual Time
Civil Twilight
Nautical Twilight
Astronomical Twilight
Moon
Length of Visible Light
Length of Day
Tomorrow will be .
, % of the Moon is Illuminated

Today's Extremes

State Highs State Lows

Community

WunderPhotos

Upload Photos

1,835,706 photos uploaded!

WunderBlogs® & News

Nearby

Air Quality

  Air Quality AQ Index Pollutant
Not available.

Snow Depth

Station Depth Elevation

Earthquake Activity

City Distance Mag. Time & Date
Minimum magnitude displayed is 2.5.

Coastal Water Temperatures

Place Temperature

Stations

Nearby Weather Stations

Station Location Temp. Windchill Dew Point Humidity Wind Precip. Elev Updated Type